createdAt,value
2023-04-18T00:02:07.371Z,2.33
2023-04-18T00:05:12.460Z,2.80
2023-04-18T00:08:16.063Z,3.25
2023-04-18T00:11:20.707Z,3.70
2023-04-18T00:14:24.859Z,3.42
2023-04-18T00:17:28.333Z,2.67
2023-04-18T00:20:32.208Z,2.23
2023-04-18T00:23:36.325Z,2.70
2023-04-18T00:26:39.747Z,2.38
2023-04-18T00:29:43.221Z,1.88
2023-04-18T00:32:46.666Z,3.10
2023-04-18T00:35:50.173Z,2.77
2023-04-18T00:38:54.057Z,2.13
2023-04-18T00:41:57.617Z,4.53
2023-04-18T00:45:01.389Z,2.80
2023-04-18T00:48:05.230Z,2.40
2023-04-18T00:51:09.629Z,2.00
2023-04-18T00:54:14.209Z,3.22
2023-04-18T00:57:17.863Z,3.47
2023-04-18T01:00:23.001Z,2.95
2023-04-18T01:03:27.158Z,3.75
2023-04-18T01:06:31.166Z,6.83
2023-04-18T01:09:34.912Z,9.70
2023-04-18T01:12:38.636Z,7.47
2023-04-18T01:15:43.737Z,5.25
2023-04-18T01:18:47.153Z,4.90
2023-04-18T01:21:53.582Z,4.83
2023-04-18T01:24:57.309Z,4.40
2023-04-18T01:28:00.917Z,3.83
2023-04-18T01:31:04.628Z,5.35
2023-04-18T01:34:08.671Z,5.47
2023-04-18T01:37:12.075Z,4.30
2023-04-18T01:40:16.796Z,5.32
2023-04-18T01:43:20.496Z,2.58
2023-04-18T01:46:24.011Z,5.00
2023-04-18T01:49:27.740Z,6.03
2023-04-18T01:52:31.661Z,8.27
2023-04-18T01:55:35.006Z,8.27
2023-04-18T01:58:38.624Z,8.20
2023-04-18T02:01:42.877Z,6.78
2023-04-18T02:04:46.515Z,6.38
2023-04-18T02:07:50.444Z,5.63
2023-04-18T02:10:54.131Z,6.70
2023-04-18T02:13:59.698Z,5.82
2023-04-18T02:17:03.227Z,3.13
2023-04-18T02:20:08.200Z,5.75
2023-04-18T02:23:11.790Z,6.13
2023-04-18T02:26:15.377Z,3.65
2023-04-18T02:29:19.504Z,6.00
2023-04-18T02:32:22.964Z,4.60
2023-04-18T02:35:27.500Z,4.65
2023-04-18T02:38:31.882Z,4.93
2023-04-18T02:41:37.687Z,3.65
2023-04-18T02:44:41.003Z,2.80
2023-04-18T02:47:54.413Z,5.32
2023-04-18T02:51:07.086Z,6.55
2023-04-18T02:54:12.929Z,5.73
2023-04-18T02:57:39.506Z,7.60
2023-04-18T03:01:18.705Z,6.40
2023-04-18T03:04:48.825Z,6.65
2023-04-18T03:07:52.332Z,9.05
2023-04-18T03:10:56.437Z,5.60
2023-04-18T03:14:02.133Z,4.13
2023-04-18T03:17:13.496Z,3.65
2023-04-18T03:20:20.769Z,3.40
2023-04-18T03:23:24.482Z,4.80
2023-04-18T03:26:28.634Z,4.47
2023-04-18T03:29:33.773Z,4.15
2023-04-18T03:32:38.725Z,3.70
2023-04-18T03:35:42.254Z,3.97
2023-04-18T03:38:45.835Z,4.88
2023-04-18T03:41:50.012Z,3.10
2023-04-18T03:44:54.099Z,4.97
2023-04-18T03:47:57.682Z,2.00
2023-04-18T03:51:01.939Z,2.85
2023-04-18T03:54:07.384Z,3.00
2023-04-18T03:57:10.884Z,3.63
2023-04-18T04:00:15.350Z,2.70
2023-04-18T04:03:31.950Z,2.83
2023-04-18T04:06:36.584Z,4.55
2023-04-18T04:09:40.279Z,8.98
2023-04-18T04:12:44.080Z,12.43
2023-04-18T04:15:47.609Z,11.57
2023-04-18T04:18:51.507Z,6.03
2023-04-18T04:21:58.859Z,4.57
2023-04-18T04:25:03.889Z,4.22
2023-04-18T04:28:14.140Z,4.50
2023-04-18T04:31:28.846Z,4.65
2023-04-18T04:34:34.581Z,7.60
2023-04-18T04:37:41.361Z,5.32
2023-04-18T04:41:00.297Z,4.38
2023-04-18T04:44:04.902Z,6.47
2023-04-18T04:47:10.193Z,4.65
2023-04-18T04:50:18.056Z,5.88
2023-04-18T04:53:21.686Z,3.78
2023-04-18T04:56:25.834Z,7.65
2023-04-18T04:59:29.498Z,7.00
2023-04-18T05:02:33.101Z,5.82
2023-04-18T05:05:36.969Z,5.97
2023-04-18T05:08:40.608Z,7.93
2023-04-18T05:11:44.101Z,5.53
2023-04-18T05:14:47.525Z,4.27
2023-04-18T05:17:50.990Z,6.40
2023-04-18T05:20:54.387Z,10.20
2023-04-18T05:23:59.014Z,4.90
2023-04-18T05:27:02.571Z,6.75
2023-04-18T05:30:06.993Z,7.13
2023-04-18T05:33:10.665Z,3.88
2023-04-18T05:36:14.152Z,6.07
2023-04-18T05:39:17.599Z,5.88
2023-04-18T05:42:21.082Z,4.35
2023-04-18T05:45:26.591Z,3.47
2023-04-18T05:48:32.156Z,4.70
2023-04-18T05:51:36.141Z,4.65
2023-04-18T05:54:39.485Z,5.85
2023-04-18T05:57:42.926Z,5.32
2023-04-18T06:00:48.160Z,4.23
2023-04-18T06:03:51.796Z,4.57
2023-04-18T06:06:55.692Z,4.57
2023-04-18T06:09:59.758Z,6.15
2023-04-18T06:13:04.623Z,5.18
2023-04-18T06:16:09.739Z,4.60
2023-04-18T06:19:15.693Z,4.30
2023-04-18T06:22:19.414Z,5.70
2023-04-18T06:25:24.116Z,4.80
2023-04-18T06:28:27.912Z,4.15
2023-04-18T06:31:37.857Z,4.70
2023-04-18T06:34:47.933Z,4.78
2023-04-18T06:37:51.527Z,6.45
2023-04-18T06:40:54.974Z,5.82
2023-04-18T06:44:03.998Z,6.70
2023-04-18T06:47:08.039Z,7.20
2023-04-18T06:50:12.161Z,3.95
2023-04-18T06:53:16.807Z,3.92
2023-04-18T06:56:21.912Z,4.15
2023-04-18T06:59:26.007Z,5.88
2023-04-18T07:02:29.741Z,5.10
2023-04-18T07:05:33.380Z,6.80
2023-04-18T07:08:37.171Z,5.07
2023-04-18T07:11:41.976Z,6.97
2023-04-18T07:14:45.506Z,4.75
2023-04-18T07:17:49.024Z,4.67
2023-04-18T07:20:52.547Z,5.72
2023-04-18T07:23:55.987Z,6.07
2023-04-18T07:26:59.392Z,5.85
2023-04-18T07:30:03.951Z,6.30
2023-04-18T07:33:07.992Z,7.47
2023-04-18T07:36:11.762Z,4.10
2023-04-18T07:39:15.437Z,7.82
2023-04-18T07:42:25.968Z,6.82
2023-04-18T07:45:29.652Z,5.97
2023-04-18T07:48:33.341Z,5.43
2023-04-18T07:51:37.028Z,6.30
2023-04-18T07:54:40.588Z,5.72
2023-04-18T07:57:45.899Z,5.97
2023-04-18T08:00:49.991Z,7.35
2023-04-18T08:03:55.150Z,6.33
2023-04-18T08:06:58.747Z,5.15
2023-04-18T08:10:02.368Z,4.03
2023-04-18T08:13:06.487Z,8.90
2023-04-18T08:16:09.971Z,5.40
2023-04-18T08:19:13.910Z,6.90
2023-04-18T08:22:17.629Z,6.45
2023-04-18T08:25:20.937Z,5.82
2023-04-18T08:28:24.400Z,4.80
2023-04-18T08:31:28.319Z,7.30
2023-04-18T08:34:36.661Z,6.87
2023-04-18T08:37:40.278Z,5.47
2023-04-18T08:40:45.217Z,4.55
2023-04-18T08:43:49.959Z,5.35
2023-04-18T08:46:53.560Z,4.80
2023-04-18T08:49:58.606Z,6.10
2023-04-18T10:40:39.081Z,7.43
2023-04-18T10:44:10.244Z,5.47
2023-04-18T10:47:16.609Z,5.38
2023-04-18T10:50:20.951Z,5.88
2023-04-18T10:53:57.861Z,5.23
2023-04-18T10:57:03.783Z,6.05
2023-04-18T11:00:15.375Z,7.47
2023-04-18T11:03:19.274Z,5.50
2023-04-18T11:06:23.900Z,5.45
2023-04-18T11:09:27.726Z,4.77
2023-04-18T11:12:36.632Z,7.97
2023-04-18T11:15:40.302Z,6.75
2023-04-18T11:18:43.621Z,5.53
2023-04-18T11:21:47.290Z,7.30
2023-04-18T11:24:50.714Z,7.30
2023-04-18T11:27:57.008Z,6.70
2023-04-18T11:31:03.021Z,6.60
2023-04-18T11:34:06.382Z,3.67
2023-04-18T11:37:09.698Z,6.18
2023-04-18T11:40:14.192Z,5.77
2023-04-18T11:43:24.059Z,6.80
2023-04-18T11:46:41.968Z,9.70
2023-04-18T11:49:49.767Z,8.38
2023-04-18T11:52:55.104Z,5.82
2023-04-18T11:55:59.855Z,4.43
2023-04-18T11:59:09.696Z,4.47
2023-04-18T12:02:16.741Z,6.57
2023-04-18T12:05:32.051Z,5.20
2023-04-18T12:08:35.874Z,5.57
2023-04-18T12:11:42.378Z,6.17
2023-04-18T12:14:46.897Z,4.28
2023-04-18T12:17:53.800Z,7.47
2023-04-18T12:20:58.728Z,6.88
2023-04-18T12:24:15.879Z,6.50
2023-04-18T12:27:19.437Z,7.80
2023-04-18T12:30:24.934Z,4.32
2023-04-18T12:33:28.666Z,8.30
2023-04-18T12:36:32.003Z,6.13
2023-04-18T12:39:35.514Z,5.20
2023-04-18T12:42:38.904Z,5.90
2023-04-18T12:45:42.570Z,5.45
2023-04-18T12:48:45.935Z,5.05
2023-04-18T12:51:49.246Z,5.25
2023-04-18T12:54:52.908Z,5.05
2023-04-18T12:57:58.155Z,5.13
2023-04-18T13:01:01.720Z,4.13
2023-04-18T13:04:12.348Z,5.57
2023-04-18T13:07:16.629Z,6.65
2023-04-18T13:10:23.899Z,6.40
2023-04-18T13:13:27.602Z,11.47
2023-04-18T13:16:31.317Z,5.53
2023-04-18T13:19:34.716Z,8.52
2023-04-18T13:22:38.865Z,5.40
2023-04-18T13:25:42.303Z,5.07
2023-04-18T13:28:45.884Z,4.67
2023-04-18T13:31:49.463Z,5.95
2023-04-18T13:34:53.138Z,6.00
2023-04-18T13:37:58.142Z,8.38
2023-04-18T13:41:12.361Z,5.55
2023-04-18T13:44:16.511Z,6.03
2023-04-18T13:47:20.651Z,7.22
2023-04-18T13:50:24.661Z,8.32
2023-04-18T13:53:30.627Z,6.55
2023-04-18T13:56:34.535Z,5.95
2023-04-18T13:59:40.507Z,5.53
2023-04-18T14:02:44.416Z,9.52
2023-04-18T14:05:48.028Z,4.28
2023-04-18T14:08:51.476Z,8.95
2023-04-18T14:11:55.088Z,14.77
2023-04-18T14:14:58.507Z,9.90
2023-04-18T14:18:02.140Z,5.63
2023-04-18T14:21:06.421Z,10.75
2023-04-18T14:24:10.790Z,5.80
2023-04-18T14:27:14.148Z,6.45
2023-04-18T14:30:17.572Z,7.67
2023-04-18T14:33:21.053Z,8.70
2023-04-18T14:36:24.660Z,6.80
2023-04-18T14:39:28.108Z,6.85
2023-04-18T14:42:31.851Z,6.13
2023-04-18T14:45:35.454Z,4.67
2023-04-18T14:48:38.900Z,13.30
2023-04-18T14:51:42.493Z,11.20
2023-04-18T14:54:45.882Z,7.63
2023-04-18T14:57:49.391Z,10.15
2023-04-18T15:00:52.775Z,5.30
2023-04-18T15:03:56.509Z,7.55
2023-04-18T15:07:00.268Z,5.03
2023-04-18T15:10:04.477Z,5.63
2023-04-18T15:13:08.479Z,8.18
2023-04-18T15:16:12.630Z,6.13
2023-04-18T15:19:16.152Z,14.98
2023-04-18T15:22:19.632Z,39.72
2023-04-18T15:25:23.452Z,10.80
2023-04-18T15:28:26.980Z,6.07
2023-04-18T15:31:31.436Z,7.87
2023-04-18T15:34:34.941Z,7.43
2023-04-18T15:37:38.809Z,10.25
2023-04-18T15:40:43.605Z,4.95
2023-04-18T15:43:47.478Z,11.63
2023-04-18T15:46:51.198Z,20.87
2023-04-18T15:49:54.886Z,22.75
2023-04-18T15:52:58.408Z,10.80
2023-04-18T15:56:01.960Z,5.60
2023-04-18T15:59:06.859Z,6.32
2023-04-18T16:02:11.101Z,5.93
2023-04-18T16:05:15.497Z,9.50
2023-04-18T16:08:19.071Z,8.38
2023-04-18T16:11:26.179Z,9.65
2023-04-18T16:14:30.576Z,6.82
2023-04-18T16:17:34.426Z,9.57
2023-04-18T16:20:37.857Z,5.82
2023-04-18T16:23:41.728Z,9.63
2023-04-18T16:26:45.200Z,10.90
2023-04-18T16:29:48.715Z,11.63
2023-04-18T16:32:52.325Z,10.07
2023-04-18T16:36:03.144Z,12.35
2023-04-18T16:39:06.635Z,23.55
2023-04-18T16:42:10.329Z,11.70
2023-04-18T16:45:13.887Z,10.00
2023-04-18T16:48:17.622Z,14.93
2023-04-18T16:51:21.130Z,11.02
2023-04-18T16:54:24.738Z,10.57
2023-04-18T16:57:28.225Z,16.10
2023-04-18T17:00:31.659Z,13.30
2023-04-18T17:03:36.948Z,20.80
2023-04-18T17:06:42.931Z,9.93
2023-04-18T17:09:46.575Z,7.80
2023-04-18T17:12:50.277Z,8.05
2023-04-18T17:15:55.051Z,13.55
2023-04-18T17:18:58.556Z,9.60
2023-04-18T17:22:02.251Z,8.43
2023-04-18T17:25:06.750Z,8.77
2023-04-18T17:28:10.523Z,12.38
2023-04-18T17:31:16.700Z,12.93
2023-04-18T17:34:20.455Z,11.83
2023-04-18T17:37:24.018Z,9.57
2023-04-18T17:40:28.297Z,11.63
2023-04-18T17:43:32.200Z,12.85
2023-04-18T17:46:36.072Z,12.10
2023-04-18T17:49:40.128Z,9.47
2023-04-18T17:52:44.068Z,6.20
2023-04-18T17:55:50.603Z,7.28
2023-04-18T17:58:56.577Z,8.32
2023-04-18T18:02:00.673Z,8.18
2023-04-18T18:05:05.601Z,9.53
2023-04-18T18:08:09.404Z,7.55
2023-04-18T18:11:13.183Z,8.02
2023-04-18T18:14:17.056Z,6.53
2023-04-18T18:17:21.062Z,8.52
2023-04-18T18:20:25.947Z,11.63
2023-04-18T18:23:29.985Z,10.02
2023-04-18T18:26:34.516Z,9.85
2023-04-18T18:29:38.745Z,8.85
2023-04-18T18:32:42.238Z,9.75
2023-04-18T18:35:45.933Z,12.13
2023-04-18T18:38:49.380Z,8.88
2023-04-18T18:41:52.943Z,7.47
2023-04-18T18:44:56.649Z,7.55
2023-04-18T18:48:00.573Z,9.38
2023-04-18T18:51:04.489Z,7.27
2023-04-18T18:54:08.550Z,6.82
2023-04-18T18:57:12.005Z,8.75
2023-04-18T19:00:16.504Z,7.15
2023-04-18T19:03:21.258Z,6.55
2023-04-18T19:06:26.464Z,9.70
2023-04-18T19:09:30.803Z,7.88
2023-04-18T19:12:35.434Z,7.75
2023-04-18T19:15:39.149Z,8.95
2023-04-18T19:18:47.054Z,7.85
2023-04-18T19:21:51.298Z,10.03
2023-04-18T19:24:57.377Z,7.72
2023-04-18T19:28:01.117Z,8.35
2023-04-18T19:31:05.186Z,6.70
2023-04-18T19:34:09.964Z,9.45
2023-04-18T19:37:13.554Z,7.27
2023-04-18T19:40:17.344Z,5.20
2023-04-18T19:43:21.085Z,10.32
2023-04-18T19:46:24.897Z,11.50
2023-04-18T19:49:28.596Z,9.73
2023-04-18T19:52:32.238Z,8.60
2023-04-18T19:55:35.698Z,9.30
2023-04-18T19:58:45.028Z,7.97
2023-04-18T20:01:49.055Z,11.98
2023-04-18T20:04:52.787Z,9.55
2023-04-18T20:07:56.535Z,8.93
2023-04-18T20:11:00.356Z,9.35
2023-04-18T20:14:04.670Z,8.80
2023-04-18T20:17:08.318Z,9.35
2023-04-18T20:20:12.461Z,8.18
2023-04-18T20:23:16.197Z,13.23
2023-04-18T20:26:19.794Z,10.60
2023-04-18T20:29:23.978Z,12.63
2023-04-18T20:32:28.159Z,9.85
2023-04-18T20:35:31.936Z,7.72
2023-04-18T20:38:37.018Z,10.60
2023-04-18T20:41:46.676Z,10.32
2023-04-18T20:44:50.078Z,9.02
2023-04-18T20:47:53.649Z,10.75
2023-04-18T20:50:57.044Z,10.02
2023-04-18T20:54:00.590Z,11.23
2023-04-18T20:57:04.087Z,11.68
2023-04-18T21:00:08.312Z,10.85
2023-04-18T21:03:14.671Z,12.70
2023-04-18T21:06:22.085Z,18.58
2023-04-18T21:09:25.723Z,14.83
2023-04-18T21:12:29.075Z,13.88
2023-04-18T21:15:32.591Z,14.52
2023-04-18T21:18:37.188Z,13.90
2023-04-18T21:21:40.626Z,13.45
2023-04-18T21:24:45.209Z,16.57
2023-04-18T21:27:50.658Z,18.92
2023-04-18T21:30:54.211Z,28.13
2023-04-18T21:34:00.556Z,26.42
2023-04-18T21:37:03.903Z,13.48
2023-04-18T21:40:08.140Z,9.93
2023-04-18T21:43:11.566Z,9.27
2023-04-18T21:46:15.401Z,11.50
2023-04-18T21:49:19.053Z,14.05
2023-04-18T21:52:22.511Z,25.45
2023-04-18T21:55:25.926Z,27.77
2023-04-18T21:58:29.725Z,24.30
2023-04-18T22:01:38.937Z,23.42
2023-04-18T22:04:45.279Z,21.80
2023-04-18T22:07:57.628Z,15.85
2023-04-18T22:11:02.060Z,12.10
2023-04-18T22:14:05.931Z,11.38
2023-04-18T22:17:10.082Z,10.32
2023-04-18T22:20:13.468Z,9.70
2023-04-18T22:23:17.049Z,9.57
2023-04-18T22:26:20.668Z,11.13
2023-04-18T22:29:24.254Z,7.97
2023-04-18T22:32:27.755Z,7.22
2023-04-18T22:35:31.187Z,6.53
2023-04-18T22:38:34.599Z,8.77
2023-04-18T22:41:38.012Z,9.20
2023-04-18T22:44:41.404Z,8.57
2023-04-18T22:47:44.838Z,7.88
2023-04-18T22:50:50.043Z,8.80
2023-04-18T22:53:53.698Z,8.68
2023-04-18T22:56:57.152Z,11.30
2023-04-18T23:00:00.663Z,7.30
2023-04-18T23:03:04.658Z,9.68
2023-04-18T23:06:08.891Z,7.80
2023-04-18T23:09:12.384Z,8.10
2023-04-18T23:12:16.063Z,14.97
2023-04-18T23:15:19.480Z,7.15
2023-04-18T23:18:22.873Z,9.07
2023-04-18T23:21:27.821Z,8.95
2023-04-18T23:24:31.693Z,7.25
2023-04-18T23:27:34.965Z,5.90
2023-04-18T23:30:38.311Z,6.97
2023-04-18T23:33:41.670Z,6.93
2023-04-18T23:36:45.113Z,8.73
2023-04-18T23:39:48.882Z,8.70
2023-04-18T23:42:52.227Z,6.67
2023-04-18T23:45:55.811Z,7.20
2023-04-18T23:48:59.522Z,8.18
2023-04-18T23:52:03.717Z,6.25
2023-04-18T23:55:07.532Z,6.80
2023-04-18T23:58:10.888Z,7.27
